sensor_id;sensor_type;location;lat;lon;timestamp;temperature;humidity
55771;DHT22;41687;-33.234;-60.334;2023-02-22T00:01:54;27.50;52.80
55771;DHT22;41687;-33.234;-60.334;2023-02-22T00:04:38;27.40;52.80
55771;DHT22;41687;-33.234;-60.334;2023-02-22T00:07:08;27.40;53.70
55771;DHT22;41687;-33.234;-60.334;2023-02-22T00:09:35;27.30;53.90
55771;DHT22;41687;-33.234;-60.334;2023-02-22T00:12:03;27.20;54.00
55771;DHT22;41687;-33.234;-60.334;2023-02-22T00:14:31;27.10;54.10
55771;DHT22;41687;-33.234;-60.334;2023-02-22T00:16:59;27.10;54.20
55771;DHT22;41687;-33.234;-60.334;2023-02-22T00:19:27;27.00;54.10
55771;DHT22;41687;-33.234;-60.334;2023-02-22T00:21:57;27.00;54.30
55771;DHT22;41687;-33.234;-60.334;2023-02-22T00:24:24;27.00;54.50
55771;DHT22;41687;-33.234;-60.334;2023-02-22T00:26:53;26.90;54.20
55771;DHT22;41687;-33.234;-60.334;2023-02-22T00:29:24;26.90;54.60
55771;DHT22;41687;-33.234;-60.334;2023-02-22T00:31:52;26.90;54.50
55771;DHT22;41687;-33.234;-60.334;2023-02-22T00:34:20;26.80;54.20
55771;DHT22;41687;-33.234;-60.334;2023-02-22T00:36:51;26.80;54.60
55771;DHT22;41687;-33.234;-60.334;2023-02-22T00:39:18;26.80;54.20
55771;DHT22;41687;-33.234;-60.334;2023-02-22T00:41:46;26.80;54.00
55771;DHT22;41687;-33.234;-60.334;2023-02-22T00:44:15;26.80;54.00
55771;DHT22;41687;-33.234;-60.334;2023-02-22T00:46:45;26.80;54.20
55771;DHT22;41687;-33.234;-60.334;2023-02-22T00:49:12;26.70;54.30
55771;DHT22;41687;-33.234;-60.334;2023-02-22T00:51:41;26.70;54.50
55771;DHT22;41687;-33.234;-60.334;2023-02-22T00:54:09;26.70;54.30
55771;DHT22;41687;-33.234;-60.334;2023-02-22T00:56:37;26.60;54.80
55771;DHT22;41687;-33.234;-60.334;2023-02-22T00:59:05;26.50;54.80
55771;DHT22;41687;-33.234;-60.334;2023-02-22T01:01:32;26.60;54.90
55771;DHT22;41687;-33.234;-60.334;2023-02-22T01:04:01;26.60;55.80
55771;DHT22;41687;-33.234;-60.334;2023-02-22T01:06:28;26.50;55.60
55771;DHT22;41687;-33.234;-60.334;2023-02-22T01:08:58;26.40;55.60
55771;DHT22;41687;-33.234;-60.334;2023-02-22T01:11:26;26.30;55.70
55771;DHT22;41687;-33.234;-60.334;2023-02-22T01:13:53;26.30;56.10
55771;DHT22;41687;-33.234;-60.334;2023-02-22T01:16:21;26.10;56.40
55771;DHT22;41687;-33.234;-60.334;2023-02-22T01:18:48;26.00;56.80
55771;DHT22;41687;-33.234;-60.334;2023-02-22T01:21:17;25.90;57.20
55771;DHT22;41687;-33.234;-60.334;2023-02-22T01:23:45;25.80;57.20
55771;DHT22;41687;-33.234;-60.334;2023-02-22T01:26:13;25.80;57.50
55771;DHT22;41687;-33.234;-60.334;2023-02-22T01:28:40;25.80;57.70
55771;DHT22;41687;-33.234;-60.334;2023-02-22T01:31:09;25.90;57.50
55771;DHT22;41687;-33.234;-60.334;2023-02-22T01:33:36;25.80;57.70
55771;DHT22;41687;-33.234;-60.334;2023-02-22T01:36:05;25.60;58.10
55771;DHT22;41687;-33.234;-60.334;2023-02-22T01:38:38;25.60;58.10
55771;DHT22;41687;-33.234;-60.334;2023-02-22T01:41:05;25.60;58.30
55771;DHT22;41687;-33.234;-60.334;2023-02-22T01:43:33;25.40;59.10
55771;DHT22;41687;-33.234;-60.334;2023-02-22T01:51:36;25.10;60.60
55771;DHT22;41687;-33.234;-60.334;2023-02-22T01:56:56;24.70;60.80
55771;DHT22;41687;-33.234;-60.334;2023-02-22T01:59:29;24.70;61.30
55771;DHT22;41687;-33.234;-60.334;2023-02-22T02:01:59;24.70;60.50
55771;DHT22;41687;-33.234;-60.334;2023-02-22T02:04:27;24.70;60.10
55771;DHT22;41687;-33.234;-60.334;2023-02-22T02:06:59;24.60;60.40
55771;DHT22;41687;-33.234;-60.334;2023-02-22T02:12:23;24.40;62.60
55771;DHT22;41687;-33.234;-60.334;2023-02-22T02:14:52;24.30;60.60
55771;DHT22;41687;-33.234;-60.334;2023-02-22T02:17:21;24.20;60.90
55771;DHT22;41687;-33.234;-60.334;2023-02-22T02:20:02;24.00;61.40
55771;DHT22;41687;-33.234;-60.334;2023-02-22T02:28:26;24.00;61.60
55771;DHT22;41687;-33.234;-60.334;2023-02-22T02:33:48;23.90;61.20
55771;DHT22;41687;-33.234;-60.334;2023-02-22T02:36:45;23.90;62.30
55771;DHT22;41687;-33.234;-60.334;2023-02-22T02:39:25;23.80;63.50
55771;DHT22;41687;-33.234;-60.334;2023-02-22T02:41:57;23.70;62.50
55771;DHT22;41687;-33.234;-60.334;2023-02-22T02:44:40;23.70;62.30
55771;DHT22;41687;-33.234;-60.334;2023-02-22T02:47:35;23.60;63.40
55771;DHT22;41687;-33.234;-60.334;2023-02-22T02:50:17;23.50;64.20
55771;DHT22;41687;-33.234;-60.334;2023-02-22T02:52:47;23.50;62.50
55771;DHT22;41687;-33.234;-60.334;2023-02-22T02:55:16;23.40;62.40
55771;DHT22;41687;-33.234;-60.334;2023-02-22T02:57:43;23.30;62.30
55771;DHT22;41687;-33.234;-60.334;2023-02-22T03:00:17;23.30;62.40
55771;DHT22;41687;-33.234;-60.334;2023-02-22T03:06:07;23.20;64.80
55771;DHT22;41687;-33.234;-60.334;2023-02-22T03:16:48;23.00;65.10
55771;DHT22;41687;-33.234;-60.334;2023-02-22T03:19:34;22.90;64.10
55771;DHT22;41687;-33.234;-60.334;2023-02-22T03:22:44;22.90;65.40
55771;DHT22;41687;-33.234;-60.334;2023-02-22T03:25:15;22.80;65.50
55771;DHT22;41687;-33.234;-60.334;2023-02-22T03:27:54;22.90;66.50
55771;DHT22;41687;-33.234;-60.334;2023-02-22T03:30:36;22.80;66.50
55771;DHT22;41687;-33.234;-60.334;2023-02-22T03:33:22;22.80;65.10
55771;DHT22;41687;-33.234;-60.334;2023-02-22T03:36:02;22.80;65.80
55771;DHT22;41687;-33.234;-60.334;2023-02-22T03:38:32;22.60;66.00
55771;DHT22;41687;-33.234;-60.334;2023-02-22T03:41:07;22.70;66.50
55771;DHT22;41687;-33.234;-60.334;2023-02-22T03:43:42;22.60;66.30
55771;DHT22;41687;-33.234;-60.334;2023-02-22T03:46:15;22.70;68.10
55771;DHT22;41687;-33.234;-60.334;2023-02-22T03:51:40;22.60;67.30
55771;DHT22;41687;-33.234;-60.334;2023-02-22T03:54:09;22.60;66.00
55771;DHT22;41687;-33.234;-60.334;2023-02-22T03:56:52;22.60;66.20
55771;DHT22;41687;-33.234;-60.334;2023-02-22T03:59:22;22.60;66.50
55771;DHT22;41687;-33.234;-60.334;2023-02-22T04:01:54;22.50;66.40
55771;DHT22;41687;-33.234;-60.334;2023-02-22T04:04:24;22.50;67.00
55771;DHT22;41687;-33.234;-60.334;2023-02-22T04:06:53;22.50;67.10
55771;DHT22;41687;-33.234;-60.334;2023-02-22T04:09:21;22.40;67.10
55771;DHT22;41687;-33.234;-60.334;2023-02-22T04:11:49;22.40;66.50
55771;DHT22;41687;-33.234;-60.334;2023-02-22T04:14:17;22.40;67.10
55771;DHT22;41687;-33.234;-60.334;2023-02-22T04:16:44;22.30;68.10
55771;DHT22;41687;-33.234;-60.334;2023-02-22T04:19:12;22.20;68.20
55771;DHT22;41687;-33.234;-60.334;2023-02-22T04:21:40;22.20;71.20
55771;DHT22;41687;-33.234;-60.334;2023-02-22T04:24:14;22.30;68.70
55771;DHT22;41687;-33.234;-60.334;2023-02-22T04:26:42;22.30;69.60
55771;DHT22;41687;-33.234;-60.334;2023-02-22T04:29:10;22.20;69.10
55771;DHT22;41687;-33.234;-60.334;2023-02-22T04:31:40;22.20;69.70
55771;DHT22;41687;-33.234;-60.334;2023-02-22T04:34:10;22.20;69.30
55771;DHT22;41687;-33.234;-60.334;2023-02-22T04:36:40;22.20;68.60
55771;DHT22;41687;-33.234;-60.334;2023-02-22T04:39:11;22.20;69.30
55771;DHT22;41687;-33.234;-60.334;2023-02-22T04:41:38;22.20;69.30
55771;DHT22;41687;-33.234;-60.334;2023-02-22T04:44:07;22.10;69.30
55771;DHT22;41687;-33.234;-60.334;2023-02-22T04:46:34;22.10;69.30
55771;DHT22;41687;-33.234;-60.334;2023-02-22T04:49:03;22.10;69.50
55771;DHT22;41687;-33.234;-60.334;2023-02-22T04:51:33;22.10;70.20
55771;DHT22;41687;-33.234;-60.334;2023-02-22T04:54:07;22.10;70.30
55771;DHT22;41687;-33.234;-60.334;2023-02-22T04:56:37;22.10;70.60
55771;DHT22;41687;-33.234;-60.334;2023-02-22T04:59:05;22.00;70.30
55771;DHT22;41687;-33.234;-60.334;2023-02-22T05:01:35;22.10;70.00
55771;DHT22;41687;-33.234;-60.334;2023-02-22T05:04:05;22.00;70.80
55771;DHT22;41687;-33.234;-60.334;2023-02-22T05:06:33;22.00;70.70
55771;DHT22;41687;-33.234;-60.334;2023-02-22T05:09:01;22.00;69.80
55771;DHT22;41687;-33.234;-60.334;2023-02-22T05:11:29;22.00;70.30
55771;DHT22;41687;-33.234;-60.334;2023-02-22T05:13:56;21.90;70.70
55771;DHT22;41687;-33.234;-60.334;2023-02-22T05:16:24;21.90;70.60
55771;DHT22;41687;-33.234;-60.334;2023-02-22T05:18:52;21.90;71.10
55771;DHT22;41687;-33.234;-60.334;2023-02-22T05:21:20;21.90;71.30
55771;DHT22;41687;-33.234;-60.334;2023-02-22T05:23:47;21.90;72.30
55771;DHT22;41687;-33.234;-60.334;2023-02-22T05:26:15;21.80;71.80
55771;DHT22;41687;-33.234;-60.334;2023-02-22T05:28:43;21.80;71.60
55771;DHT22;41687;-33.234;-60.334;2023-02-22T05:31:11;21.80;71.00
55771;DHT22;41687;-33.234;-60.334;2023-02-22T05:33:38;21.80;70.80
55771;DHT22;41687;-33.234;-60.334;2023-02-22T05:36:07;21.70;71.00
55771;DHT22;41687;-33.234;-60.334;2023-02-22T05:38:36;21.70;71.10
55771;DHT22;41687;-33.234;-60.334;2023-02-22T05:41:12;21.70;71.10
55771;DHT22;41687;-33.234;-60.334;2023-02-22T05:43:40;21.70;71.80
55771;DHT22;41687;-33.234;-60.334;2023-02-22T05:46:08;21.70;71.80
55771;DHT22;41687;-33.234;-60.334;2023-02-22T05:48:36;21.60;71.10
55771;DHT22;41687;-33.234;-60.334;2023-02-22T05:51:04;21.60;71.20
55771;DHT22;41687;-33.234;-60.334;2023-02-22T05:53:31;21.60;71.30
55771;DHT22;41687;-33.234;-60.334;2023-02-22T05:55:59;21.50;72.20
55771;DHT22;41687;-33.234;-60.334;2023-02-22T05:58:27;21.50;71.70
55771;DHT22;41687;-33.234;-60.334;2023-02-22T06:00:54;21.50;72.10
55771;DHT22;41687;-33.234;-60.334;2023-02-22T06:03:22;21.60;71.10
55771;DHT22;41687;-33.234;-60.334;2023-02-22T06:05:50;21.50;71.10
55771;DHT22;41687;-33.234;-60.334;2023-02-22T06:08:18;21.60;70.40
55771;DHT22;41687;-33.234;-60.334;2023-02-22T06:10:45;21.70;69.90
55771;DHT22;41687;-33.234;-60.334;2023-02-22T06:13:13;21.80;69.50
55771;DHT22;41687;-33.234;-60.334;2023-02-22T06:15:40;21.70;69.50
55771;DHT22;41687;-33.234;-60.334;2023-02-22T06:18:08;21.80;69.00
55771;DHT22;41687;-33.234;-60.334;2023-02-22T06:20:36;21.90;68.60
55771;DHT22;41687;-33.234;-60.334;2023-02-22T06:23:04;21.90;68.60
55771;DHT22;41687;-33.234;-60.334;2023-02-22T06:25:32;21.90;68.80
55771;DHT22;41687;-33.234;-60.334;2023-02-22T06:28:00;21.80;68.90
55771;DHT22;41687;-33.234;-60.334;2023-02-22T06:30:28;21.80;69.00
55771;DHT22;41687;-33.234;-60.334;2023-02-22T06:32:56;21.80;69.20
55771;DHT22;41687;-33.234;-60.334;2023-02-22T06:35:24;21.80;68.90
55771;DHT22;41687;-33.234;-60.334;2023-02-22T06:37:52;21.80;69.20
55771;DHT22;41687;-33.234;-60.334;2023-02-22T06:40:19;21.80;68.60
55771;DHT22;41687;-33.234;-60.334;2023-02-22T06:42:48;21.80;69.20
55771;DHT22;41687;-33.234;-60.334;2023-02-22T06:45:17;21.80;69.50
55771;DHT22;41687;-33.234;-60.334;2023-02-22T06:47:45;21.70;70.00
55771;DHT22;41687;-33.234;-60.334;2023-02-22T06:50:32;21.70;69.70
55771;DHT22;41687;-33.234;-60.334;2023-02-22T06:53:01;21.70;70.90
55771;DHT22;41687;-33.234;-60.334;2023-02-22T06:55:30;21.70;69.60
55771;DHT22;41687;-33.234;-60.334;2023-02-22T06:57:58;21.60;69.30
55771;DHT22;41687;-33.234;-60.334;2023-02-22T07:00:26;21.70;69.00
55771;DHT22;41687;-33.234;-60.334;2023-02-22T07:02:55;21.60;69.10
55771;DHT22;41687;-33.234;-60.334;2023-02-22T07:05:24;21.50;69.00
55771;DHT22;41687;-33.234;-60.334;2023-02-22T07:07:52;21.60;68.70
55771;DHT22;41687;-33.234;-60.334;2023-02-22T07:10:25;21.60;68.20
55771;DHT22;41687;-33.234;-60.334;2023-02-22T07:12:54;21.60;68.80
55771;DHT22;41687;-33.234;-60.334;2023-02-22T07:15:23;21.70;68.00
55771;DHT22;41687;-33.234;-60.334;2023-02-22T07:17:51;21.80;68.00
55771;DHT22;41687;-33.234;-60.334;2023-02-22T07:20:20;21.80;68.00
55771;DHT22;41687;-33.234;-60.334;2023-02-22T07:22:48;21.80;67.70
55771;DHT22;41687;-33.234;-60.334;2023-02-22T07:25:16;21.80;68.10
55771;DHT22;41687;-33.234;-60.334;2023-02-22T07:27:45;21.70;68.10
55771;DHT22;41687;-33.234;-60.334;2023-02-22T07:30:17;21.70;67.70
55771;DHT22;41687;-33.234;-60.334;2023-02-22T07:32:46;21.70;67.80
55771;DHT22;41687;-33.234;-60.334;2023-02-22T07:35:23;21.80;67.40
55771;DHT22;41687;-33.234;-60.334;2023-02-22T07:37:51;21.60;68.60
55771;DHT22;41687;-33.234;-60.334;2023-02-22T07:40:19;21.50;68.30
55771;DHT22;41687;-33.234;-60.334;2023-02-22T07:43:04;21.50;68.30
55771;DHT22;41687;-33.234;-60.334;2023-02-22T07:45:34;21.60;69.10
55771;DHT22;41687;-33.234;-60.334;2023-02-22T07:48:02;21.50;68.40
55771;DHT22;41687;-33.234;-60.334;2023-02-22T07:50:31;21.60;68.20
55771;DHT22;41687;-33.234;-60.334;2023-02-22T07:53:02;21.60;68.10
55771;DHT22;41687;-33.234;-60.334;2023-02-22T07:55:31;21.60;68.20
55771;DHT22;41687;-33.234;-60.334;2023-02-22T07:58:02;21.40;68.60
55771;DHT22;41687;-33.234;-60.334;2023-02-22T08:00:35;21.50;68.50
55771;DHT22;41687;-33.234;-60.334;2023-02-22T08:03:06;21.50;68.40
55771;DHT22;41687;-33.234;-60.334;2023-02-22T08:05:35;21.40;68.50
55771;DHT22;41687;-33.234;-60.334;2023-02-22T08:08:04;21.60;68.60
55771;DHT22;41687;-33.234;-60.334;2023-02-22T08:10:32;21.50;68.80
55771;DHT22;41687;-33.234;-60.334;2023-02-22T08:13:01;21.40;68.80
55771;DHT22;41687;-33.234;-60.334;2023-02-22T08:15:39;21.50;68.90
55771;DHT22;41687;-33.234;-60.334;2023-02-22T08:18:10;21.40;69.90
55771;DHT22;41687;-33.234;-60.334;2023-02-22T08:20:40;21.40;69.10
55771;DHT22;41687;-33.234;-60.334;2023-02-22T08:23:09;21.50;68.90
55771;DHT22;41687;-33.234;-60.334;2023-02-22T08:25:37;21.50;68.50
55771;DHT22;41687;-33.234;-60.334;2023-02-22T08:28:12;21.50;68.60
55771;DHT22;41687;-33.234;-60.334;2023-02-22T08:30:42;21.50;68.80
55771;DHT22;41687;-33.234;-60.334;2023-02-22T08:33:11;21.50;68.70
55771;DHT22;41687;-33.234;-60.334;2023-02-22T08:35:40;21.50;68.70
55771;DHT22;41687;-33.234;-60.334;2023-02-22T08:38:15;21.30;69.80
55771;DHT22;41687;-33.234;-60.334;2023-02-22T08:40:44;21.40;69.50
55771;DHT22;41687;-33.234;-60.334;2023-02-22T08:43:12;21.30;69.10
55771;DHT22;41687;-33.234;-60.334;2023-02-22T08:45:40;21.20;69.10
55771;DHT22;41687;-33.234;-60.334;2023-02-22T08:48:07;21.20;69.20
55771;DHT22;41687;-33.234;-60.334;2023-02-22T08:50:38;21.30;68.90
55771;DHT22;41687;-33.234;-60.334;2023-02-22T08:53:09;21.30;69.30
55771;DHT22;41687;-33.234;-60.334;2023-02-22T08:55:39;21.30;68.90
55771;DHT22;41687;-33.234;-60.334;2023-02-22T08:58:08;21.40;69.00
55771;DHT22;41687;-33.234;-60.334;2023-02-22T09:00:37;21.40;68.90
55771;DHT22;41687;-33.234;-60.334;2023-02-22T09:03:08;21.40;69.00
55771;DHT22;41687;-33.234;-60.334;2023-02-22T09:05:36;21.40;68.70
55771;DHT22;41687;-33.234;-60.334;2023-02-22T09:08:04;21.40;69.30
55771;DHT22;41687;-33.234;-60.334;2023-02-22T09:10:33;21.40;68.90
55771;DHT22;41687;-33.234;-60.334;2023-02-22T09:13:02;21.40;68.90
55771;DHT22;41687;-33.234;-60.334;2023-02-22T09:15:31;21.40;69.20
55771;DHT22;41687;-33.234;-60.334;2023-02-22T09:17:59;21.40;69.10
55771;DHT22;41687;-33.234;-60.334;2023-02-22T09:20:28;21.30;69.10
55771;DHT22;41687;-33.234;-60.334;2023-02-22T09:22:56;21.40;68.90
55771;DHT22;41687;-33.234;-60.334;2023-02-22T09:25:23;21.40;69.00
55771;DHT22;41687;-33.234;-60.334;2023-02-22T09:27:51;21.30;69.00
55771;DHT22;41687;-33.234;-60.334;2023-02-22T09:30:29;21.20;69.30
55771;DHT22;41687;-33.234;-60.334;2023-02-22T09:33:00;21.10;70.20
55771;DHT22;41687;-33.234;-60.334;2023-02-22T09:35:28;20.90;70.00
55771;DHT22;41687;-33.234;-60.334;2023-02-22T09:37:58;21.10;69.80
55771;DHT22;41687;-33.234;-60.334;2023-02-22T09:40:31;21.10;70.30
55771;DHT22;41687;-33.234;-60.334;2023-02-22T09:43:25;20.90;70.50
55771;DHT22;41687;-33.234;-60.334;2023-02-22T09:48:55;21.10;71.00
55771;DHT22;41687;-33.234;-60.334;2023-02-22T09:51:32;21.10;70.50
55771;DHT22;41687;-33.234;-60.334;2023-02-22T09:54:04;21.10;70.30
55771;DHT22;41687;-33.234;-60.334;2023-02-22T09:56:33;21.10;70.20
55771;DHT22;41687;-33.234;-60.334;2023-02-22T09:59:04;21.00;70.50
55771;DHT22;41687;-33.234;-60.334;2023-02-22T10:01:35;21.10;69.80
55771;DHT22;41687;-33.234;-60.334;2023-02-22T10:06:42;21.10;70.80
55771;DHT22;41687;-33.234;-60.334;2023-02-22T10:09:10;21.10;70.10
55771;DHT22;41687;-33.234;-60.334;2023-02-22T10:12:01;21.10;70.00
55771;DHT22;41687;-33.234;-60.334;2023-02-22T10:20:46;21.10;71.00
55771;DHT22;41687;-33.234;-60.334;2023-02-22T10:26:03;20.90;71.50
55771;DHT22;41687;-33.234;-60.334;2023-02-22T10:28:40;21.00;70.90
55771;DHT22;41687;-33.234;-60.334;2023-02-22T10:31:15;20.90;71.20
55771;DHT22;41687;-33.234;-60.334;2023-02-22T10:33:58;21.00;71.10
55771;DHT22;41687;-33.234;-60.334;2023-02-22T10:36:28;20.80;71.40
55771;DHT22;41687;-33.234;-60.334;2023-02-22T10:41:53;20.90;71.70
55771;DHT22;41687;-33.234;-60.334;2023-02-22T10:44:22;20.90;71.60
55771;DHT22;41687;-33.234;-60.334;2023-02-22T10:46:49;20.90;71.10
55771;DHT22;41687;-33.234;-60.334;2023-02-22T10:49:22;21.00;70.90
55771;DHT22;41687;-33.234;-60.334;2023-02-22T10:52:01;20.80;71.90
55771;DHT22;41687;-33.234;-60.334;2023-02-22T10:54:41;20.80;72.40
55771;DHT22;41687;-33.234;-60.334;2023-02-22T10:57:11;21.10;71.80
55771;DHT22;41687;-33.234;-60.334;2023-02-22T10:59:40;21.10;71.60
55771;DHT22;41687;-33.234;-60.334;2023-02-22T11:02:28;21.10;71.10
55771;DHT22;41687;-33.234;-60.334;2023-02-22T11:04:59;21.40;71.20
55771;DHT22;41687;-33.234;-60.334;2023-02-22T11:09:59;21.40;70.40
55771;DHT22;41687;-33.234;-60.334;2023-02-22T11:12:36;21.40;70.60
55771;DHT22;41687;-33.234;-60.334;2023-02-22T11:17:50;21.50;70.50
55771;DHT22;41687;-33.234;-60.334;2023-02-22T11:20:38;21.70;70.00
55771;DHT22;41687;-33.234;-60.334;2023-02-22T11:23:06;21.60;70.90
55771;DHT22;41687;-33.234;-60.334;2023-02-22T11:25:36;21.80;69.80
55771;DHT22;41687;-33.234;-60.334;2023-02-22T11:28:43;22.20;69.40
55771;DHT22;41687;-33.234;-60.334;2023-02-22T11:31:25;22.60;68.80
55771;DHT22;41687;-33.234;-60.334;2023-02-22T11:33:54;23.20;67.50
55771;DHT22;41687;-33.234;-60.334;2023-02-22T11:36:32;23.50;67.00
55771;DHT22;41687;-33.234;-60.334;2023-02-22T11:39:27;23.30;67.40
55771;DHT22;41687;-33.234;-60.334;2023-02-22T11:41:55;23.50;67.50
55771;DHT22;41687;-33.234;-60.334;2023-02-22T11:44:28;23.60;67.40
55771;DHT22;41687;-33.234;-60.334;2023-02-22T11:46:59;23.50;67.60
55771;DHT22;41687;-33.234;-60.334;2023-02-22T11:49:36;23.60;67.80
55771;DHT22;41687;-33.234;-60.334;2023-02-22T11:52:23;23.40;68.40
55771;DHT22;41687;-33.234;-60.334;2023-02-22T12:05:58;24.70;67.60
55771;DHT22;41687;-33.234;-60.334;2023-02-22T12:08:44;24.80;67.10
55771;DHT22;41687;-33.234;-60.334;2023-02-22T12:14:28;24.80;67.00
55771;DHT22;41687;-33.234;-60.334;2023-02-22T12:20:20;24.90;67.20
55771;DHT22;41687;-33.234;-60.334;2023-02-22T12:22:57;25.00;67.20
55771;DHT22;41687;-33.234;-60.334;2023-02-22T12:25:32;24.90;67.40
55771;DHT22;41687;-33.234;-60.334;2023-02-22T12:28:12;24.60;67.60
55771;DHT22;41687;-33.234;-60.334;2023-02-22T12:30:46;24.50;67.80
55771;DHT22;41687;-33.234;-60.334;2023-02-22T12:33:25;24.70;67.70
55771;DHT22;41687;-33.234;-60.334;2023-02-22T12:35:58;24.90;67.20
55771;DHT22;41687;-33.234;-60.334;2023-02-22T12:38:31;24.80;67.30
55771;DHT22;41687;-33.234;-60.334;2023-02-22T12:46:29;24.30;67.10
55771;DHT22;41687;-33.234;-60.334;2023-02-22T12:57:52;24.20;67.90
55771;DHT22;41687;-33.234;-60.334;2023-02-22T13:00:30;23.90;68.00
55771;DHT22;41687;-33.234;-60.334;2023-02-22T13:06:01;24.10;68.20
55771;DHT22;41687;-33.234;-60.334;2023-02-22T13:11:45;24.60;67.70
55771;DHT22;41687;-33.234;-60.334;2023-02-22T13:22:33;24.60;66.80
55771;DHT22;41687;-33.234;-60.334;2023-02-22T13:25:36;24.70;66.80
55771;DHT22;41687;-33.234;-60.334;2023-02-22T13:28:17;24.80;67.20
55771;DHT22;41687;-33.234;-60.334;2023-02-22T13:31:01;25.00;66.30
55771;DHT22;41687;-33.234;-60.334;2023-02-22T13:33:48;25.10;65.10
55771;DHT22;41687;-33.234;-60.334;2023-02-22T13:47:44;25.40;64.70
55771;DHT22;41687;-33.234;-60.334;2023-02-22T13:53:04;25.30;65.00
55771;DHT22;41687;-33.234;-60.334;2023-02-22T13:55:38;25.20;64.40
55771;DHT22;41687;-33.234;-60.334;2023-02-22T13:58:09;25.30;65.20
55771;DHT22;41687;-33.234;-60.334;2023-02-22T14:00:45;25.20;65.80
55771;DHT22;41687;-33.234;-60.334;2023-02-22T14:13:28;25.20;65.30
55771;DHT22;41687;-33.234;-60.334;2023-02-22T14:18:41;25.10;65.30
55771;DHT22;41687;-33.234;-60.334;2023-02-22T14:21:17;25.10;65.40
55771;DHT22;41687;-33.234;-60.334;2023-02-22T14:23:55;25.10;64.70
55771;DHT22;41687;-33.234;-60.334;2023-02-22T14:26:31;25.50;64.90
55771;DHT22;41687;-33.234;-60.334;2023-02-22T14:29:13;25.60;64.50
55771;DHT22;41687;-33.234;-60.334;2023-02-22T14:34:53;25.60;64.40
55771;DHT22;41687;-33.234;-60.334;2023-02-22T14:37:34;25.80;63.90
55771;DHT22;41687;-33.234;-60.334;2023-02-22T14:40:35;26.20;63.60
55771;DHT22;41687;-33.234;-60.334;2023-02-22T14:43:18;26.00;63.40
55771;DHT22;41687;-33.234;-60.334;2023-02-22T14:45:53;25.60;63.60
55771;DHT22;41687;-33.234;-60.334;2023-02-22T14:48:36;25.90;64.10
55771;DHT22;41687;-33.234;-60.334;2023-02-22T14:51:25;25.90;63.90
55771;DHT22;41687;-33.234;-60.334;2023-02-22T14:54:27;25.80;64.40
55771;DHT22;41687;-33.234;-60.334;2023-02-22T15:00:06;26.20;64.50
55771;DHT22;41687;-33.234;-60.334;2023-02-22T15:02:50;26.20;64.00
55771;DHT22;41687;-33.234;-60.334;2023-02-22T15:05:33;26.40;64.20
55771;DHT22;41687;-33.234;-60.334;2023-02-22T15:08:06;26.40;64.30
55771;DHT22;41687;-33.234;-60.334;2023-02-22T15:10:41;26.50;64.60
55771;DHT22;41687;-33.234;-60.334;2023-02-22T15:13:23;26.40;64.30
55771;DHT22;41687;-33.234;-60.334;2023-02-22T15:15:57;26.00;64.60
55771;DHT22;41687;-33.234;-60.334;2023-02-22T15:21:10;26.40;64.30
55771;DHT22;41687;-33.234;-60.334;2023-02-22T15:23:47;26.60;64.60
55771;DHT22;41687;-33.234;-60.334;2023-02-22T15:26:36;26.50;64.40
55771;DHT22;41687;-33.234;-60.334;2023-02-22T15:29:13;26.20;64.20
55771;DHT22;41687;-33.234;-60.334;2023-02-22T15:31:41;26.20;64.30
55771;DHT22;41687;-33.234;-60.334;2023-02-22T15:36:52;26.10;64.60
55771;DHT22;41687;-33.234;-60.334;2023-02-22T15:39:32;26.00;63.70
55771;DHT22;41687;-33.234;-60.334;2023-02-22T15:42:11;26.00;64.10
55771;DHT22;41687;-33.234;-60.334;2023-02-22T15:44:50;26.40;63.80
55771;DHT22;41687;-33.234;-60.334;2023-02-22T15:47:23;26.50;62.70
55771;DHT22;41687;-33.234;-60.334;2023-02-22T15:50:15;26.60;63.20
55771;DHT22;41687;-33.234;-60.334;2023-02-22T15:52:48;26.70;62.80
55771;DHT22;41687;-33.234;-60.334;2023-02-22T15:55:27;26.70;62.50
55771;DHT22;41687;-33.234;-60.334;2023-02-22T15:57:58;26.70;62.90
55771;DHT22;41687;-33.234;-60.334;2023-02-22T16:00:33;26.80;63.00
55771;DHT22;41687;-33.234;-60.334;2023-02-22T16:03:08;26.80;61.70
55771;DHT22;41687;-33.234;-60.334;2023-02-22T16:05:45;27.00;62.80
55771;DHT22;41687;-33.234;-60.334;2023-02-22T16:08:18;27.30;61.90
55771;DHT22;41687;-33.234;-60.334;2023-02-22T16:11:29;26.90;61.70
55771;DHT22;41687;-33.234;-60.334;2023-02-22T16:14:14;27.00;61.40
55771;DHT22;41687;-33.234;-60.334;2023-02-22T16:17:08;27.10;62.20
55771;DHT22;41687;-33.234;-60.334;2023-02-22T16:19:39;27.10;62.50
55771;DHT22;41687;-33.234;-60.334;2023-02-22T16:22:33;27.30;62.80
55771;DHT22;41687;-33.234;-60.334;2023-02-22T16:27:54;27.30;61.60
55771;DHT22;41687;-33.234;-60.334;2023-02-22T16:30:28;27.00;61.70
55771;DHT22;41687;-33.234;-60.334;2023-02-22T16:33:01;27.10;61.80
55771;DHT22;41687;-33.234;-60.334;2023-02-22T16:35:31;27.20;62.70
55771;DHT22;41687;-33.234;-60.334;2023-02-22T16:38:07;27.30;62.90
55771;DHT22;41687;-33.234;-60.334;2023-02-22T16:40:47;27.00;62.20
55771;DHT22;41687;-33.234;-60.334;2023-02-22T16:43:23;26.90;61.80
55771;DHT22;41687;-33.234;-60.334;2023-02-22T16:45:51;26.90;63.10
55771;DHT22;41687;-33.234;-60.334;2023-02-22T16:48:24;27.00;63.40
55771;DHT22;41687;-33.234;-60.334;2023-02-22T16:50:55;26.90;63.00
55771;DHT22;41687;-33.234;-60.334;2023-02-22T16:53:27;26.70;63.40
55771;DHT22;41687;-33.234;-60.334;2023-02-22T16:55:56;26.90;63.50
55771;DHT22;41687;-33.234;-60.334;2023-02-22T16:58:26;27.00;63.70
55771;DHT22;41687;-33.234;-60.334;2023-02-22T17:00:55;26.80;63.30
55771;DHT22;41687;-33.234;-60.334;2023-02-22T17:03:24;26.90;63.50
55771;DHT22;41687;-33.234;-60.334;2023-02-22T17:05:52;27.00;63.60
55771;DHT22;41687;-33.234;-60.334;2023-02-22T17:08:20;27.10;63.20
55771;DHT22;41687;-33.234;-60.334;2023-02-22T17:10:48;27.00;63.00
55771;DHT22;41687;-33.234;-60.334;2023-02-22T17:13:25;27.00;63.00
55771;DHT22;41687;-33.234;-60.334;2023-02-22T17:15:53;27.00;62.80
55771;DHT22;41687;-33.234;-60.334;2023-02-22T17:18:22;27.00;63.00
55771;DHT22;41687;-33.234;-60.334;2023-02-22T17:20:51;26.70;62.90
55771;DHT22;41687;-33.234;-60.334;2023-02-22T17:23:21;26.80;63.00
55771;DHT22;41687;-33.234;-60.334;2023-02-22T17:25:51;26.80;62.70
55771;DHT22;41687;-33.234;-60.334;2023-02-22T17:28:21;26.60;63.40
55771;DHT22;41687;-33.234;-60.334;2023-02-22T17:30:50;26.60;63.80
55771;DHT22;41687;-33.234;-60.334;2023-02-22T17:33:22;26.70;63.90
55771;DHT22;41687;-33.234;-60.334;2023-02-22T17:35:56;26.80;64.20
55771;DHT22;41687;-33.234;-60.334;2023-02-22T17:38:24;26.70;63.80
55771;DHT22;41687;-33.234;-60.334;2023-02-22T17:40:57;26.80;63.70
55771;DHT22;41687;-33.234;-60.334;2023-02-22T17:43:26;26.70;63.60
55771;DHT22;41687;-33.234;-60.334;2023-02-22T17:45:54;26.90;63.70